sensor_id;sensor_type;location;lat;lon;timestamp;pressure;altitude;pressure_sealevel;temperature;humidity
6869;BME280;3473;42.604;23.496;2022-08-20T00:01:21;20090.03;;;-140.19;50.76
6869;BME280;3473;42.604;23.496;2022-08-20T00:02:56;20080.34;;;-140.19;50.31
6869;BME280;3473;42.604;23.496;2022-08-20T00:04:28;20121.09;;;-140.19;50.25
6869;BME280;3473;42.604;23.496;2022-08-20T00:06:02;20142.44;;;-140.19;50.14
6869;BME280;3473;42.604;23.496;2022-08-20T00:07:35;20146.34;;;-140.19;50.42
6869;BME280;3473;42.604;23.496;2022-08-20T00:09:06;20124.97;;;-140.19;50.38
6869;BME280;3473;42.604;23.496;2022-08-20T00:10:41;20086.16;;;-140.19;50.52
6869;BME280;3473;42.604;23.496;2022-08-20T00:12:15;20091.97;;;-140.19;50.50
6869;BME280;3473;42.604;23.496;2022-08-20T00:13:50;20082.28;;;-140.19;50.42
6869;BME280;3473;42.604;23.496;2022-08-20T00:15:25;20111.41;;;-140.19;50.73
6869;BME280;3473;42.604;23.496;2022-08-20T00:16:57;20107.50;;;-140.19;50.75
6869;BME280;3473;42.604;23.496;2022-08-20T00:18:29;20074.50;;;-140.19;50.81
6869;BME280;3473;42.604;23.496;2022-08-20T00:20:03;20091.97;;;-140.19;50.83
6869;BME280;3473;42.604;23.496;2022-08-20T00:21:34;20113.34;;;-140.19;50.52
6869;BME280;3473;42.604;23.496;2022-08-20T00:23:07;20074.50;;;-140.19;50.50
6869;BME280;3473;42.604;23.496;2022-08-20T00:24:38;20097.81;;;-140.19;50.65
6869;BME280;3473;42.604;23.496;2022-08-20T00:26:10;20111.41;;;-140.19;50.64
6869;BME280;3473;42.604;23.496;2022-08-20T00:27:43;20057.03;;;-140.19;50.93
6869;BME280;3473;42.604;23.496;2022-08-20T00:29:14;20068.69;;;-140.19;50.99
6869;BME280;3473;42.604;23.496;2022-08-20T00:30:47;20095.88;;;-140.19;51.26
6869;BME280;3473;42.604;23.496;2022-08-20T00:32:19;20109.44;;;-140.19;51.35
6869;BME280;3473;42.604;23.496;2022-08-20T00:33:51;20024.03;;;-140.19;51.71
6869;BME280;3473;42.604;23.496;2022-08-20T00:35:28;20072.56;;;-140.19;51.72
6869;BME280;3473;42.604;23.496;2022-08-20T00:37:00;20072.56;;;-140.19;51.98
6869;BME280;3473;42.604;23.496;2022-08-20T00:38:32;20064.81;;;-140.19;52.38
6869;BME280;3473;42.604;23.496;2022-08-20T00:40:06;20047.34;;;-140.19;52.07
6869;BME280;3473;42.604;23.496;2022-08-20T00:41:37;20039.56;;;-140.19;51.92
6869;BME280;3473;42.604;23.496;2022-08-20T00:43:35;20039.56;;;-140.19;52.00
6869;BME280;3473;42.604;23.496;2022-08-20T00:45:08;20088.09;;;-140.19;51.71
6869;BME280;3473;42.604;23.496;2022-08-20T00:46:41;20074.50;;;-140.19;52.37
6869;BME280;3473;42.604;23.496;2022-08-20T00:48:13;20091.97;;;-140.19;52.22
6869;BME280;3473;42.604;23.496;2022-08-20T00:49:45;20004.63;;;-140.19;52.18
6869;BME280;3473;42.604;23.496;2022-08-20T00:51:27;20033.75;;;-140.19;52.34
6869;BME280;3473;42.604;23.496;2022-08-20T00:53:02;20037.63;;;-140.19;52.44
6869;BME280;3473;42.604;23.496;2022-08-20T00:54:38;20031.81;;;-140.19;52.42
6869;BME280;3473;42.604;23.496;2022-08-20T00:56:13;20057.03;;;-140.19;52.62
6869;BME280;3473;42.604;23.496;2022-08-20T00:57:50;20167.69;;;-140.19;52.93
6869;BME280;3473;42.604;23.496;2022-08-20T00:59:27;20018.22;;;-140.19;52.82
6869;BME280;3473;42.604;23.496;2022-08-20T01:01:00;20029.88;;;-140.19;52.89
6869;BME280;3473;42.604;23.496;2022-08-20T01:02:32;20027.94;;;-140.19;53.00
6869;BME280;3473;42.604;23.496;2022-08-20T01:04:04;20043.47;;;-140.19;52.85
6869;BME280;3473;42.604;23.496;2022-08-20T01:05:37;20026.00;;;-140.19;52.79
6869;BME280;3473;42.604;23.496;2022-08-20T01:07:09;20024.03;;;-140.19;53.05
6869;BME280;3473;42.604;23.496;2022-08-20T01:08:41;20029.88;;;-140.19;53.39
6869;BME280;3473;42.604;23.496;2022-08-20T01:10:18;20055.09;;;-140.19;53.53
6869;BME280;3473;42.604;23.496;2022-08-20T01:11:50;20109.44;;;-140.19;53.53
6869;BME280;3473;42.604;23.496;2022-08-20T01:13:22;20076.47;;;-140.19;54.17
6869;BME280;3473;42.604;23.496;2022-08-20T01:14:58;20041.50;;;-140.19;54.10
6869;BME280;3473;42.604;23.496;2022-08-20T01:16:30;20053.16;;;-140.19;54.21
6869;BME280;3473;42.604;23.496;2022-08-20T01:18:02;20082.28;;;-140.19;54.10
6869;BME280;3473;42.604;23.496;2022-08-20T01:19:37;19975.53;;;-140.19;54.42
6869;BME280;3473;42.604;23.496;2022-08-20T01:21:09;20020.16;;;-140.19;54.33
6869;BME280;3473;42.604;23.496;2022-08-20T01:22:45;20033.75;;;-140.19;54.13
6869;BME280;3473;42.604;23.496;2022-08-20T01:24:40;20020.16;;;-140.19;54.55
6869;BME280;3473;42.604;23.496;2022-08-20T01:26:16;19967.75;;;-140.19;54.45
6869;BME280;3473;42.604;23.496;2022-08-20T01:27:49;20026.00;;;-140.19;54.26
6869;BME280;3473;42.604;23.496;2022-08-20T01:29:23;20006.56;;;-140.19;54.62
6869;BME280;3473;42.604;23.496;2022-08-20T01:30:56;19979.41;;;-140.19;54.77
6869;BME280;3473;42.604;23.496;2022-08-20T01:32:27;20010.47;;;-140.19;54.78
6869;BME280;3473;42.604;23.496;2022-08-20T01:34:01;20035.69;;;-140.19;54.72
6869;BME280;3473;42.604;23.496;2022-08-20T01:35:35;18869.34;;;-140.19;54.79
6869;BME280;3473;42.604;23.496;2022-08-20T01:37:07;20024.03;;;-140.19;55.04
6869;BME280;3473;42.604;23.496;2022-08-20T01:38:39;20012.41;;;-140.19;54.74
6869;BME280;3473;42.604;23.496;2022-08-20T01:40:13;19967.75;;;-140.19;54.84
6869;BME280;3473;42.604;23.496;2022-08-20T01:41:53;19907.59;;;-140.19;54.90
6869;BME280;3473;42.604;23.496;2022-08-20T01:43:27;19961.94;;;-140.19;55.12
6869;BME280;3473;42.604;23.496;2022-08-20T01:44:58;19998.81;;;-140.19;55.26
6869;BME280;3473;42.604;23.496;2022-08-20T01:46:36;19987.16;;;-140.19;55.38
6869;BME280;3473;42.604;23.496;2022-08-20T01:48:08;19993.00;;;-140.19;55.37
6869;BME280;3473;42.604;23.496;2022-08-20T01:49:41;20000.75;;;-140.19;55.20
6869;BME280;3473;42.604;23.496;2022-08-20T01:51:16;20045.41;;;-140.19;55.04
6869;BME280;3473;42.604;23.496;2022-08-20T01:52:51;20037.63;;;-140.19;55.62
6869;BME280;3473;42.604;23.496;2022-08-20T01:54:25;19973.59;;;-140.19;55.73
6869;BME280;3473;42.604;23.496;2022-08-20T01:55:58;19960.00;;;-140.19;55.86
6869;BME280;3473;42.604;23.496;2022-08-20T01:57:30;19987.16;;;-140.19;56.21
6869;BME280;3473;42.604;23.496;2022-08-20T01:59:05;20002.69;;;-140.19;56.06
6869;BME280;3473;42.604;23.496;2022-08-20T02:00:37;19965.81;;;-140.19;56.08
6869;BME280;3473;42.604;23.496;2022-08-20T02:02:09;20072.56;;;-140.19;56.06
6869;BME280;3473;42.604;23.496;2022-08-20T02:03:41;20002.69;;;-140.19;56.20
6869;BME280;3473;42.604;23.496;2022-08-20T02:05:12;20082.28;;;-140.19;56.25
6869;BME280;3473;42.604;23.496;2022-08-20T02:06:46;19944.47;;;-140.19;56.18
6869;BME280;3473;42.604;23.496;2022-08-20T02:08:19;19940.59;;;-140.19;56.01
6869;BME280;3473;42.604;23.496;2022-08-20T02:09:51;19938.66;;;-140.19;56.24
6869;BME280;3473;42.604;23.496;2022-08-20T02:11:23;19946.41;;;-140.19;56.64
6869;BME280;3473;42.604;23.496;2022-08-20T02:12:56;19944.47;;;-140.19;56.77
6869;BME280;3473;42.604;23.496;2022-08-20T02:14:29;19950.28;;;-140.19;57.19
6869;BME280;3473;42.604;23.496;2022-08-20T02:16:00;19944.47;;;-140.19;57.55
6869;BME280;3473;42.604;23.496;2022-08-20T02:17:31;19925.06;;;-140.19;57.47
6869;BME280;3473;42.604;23.496;2022-08-20T02:19:08;20002.69;;;-140.19;57.80
6869;BME280;3473;42.604;23.496;2022-08-20T02:20:42;19932.81;;;-140.19;57.72
6869;BME280;3473;42.604;23.496;2022-08-20T02:22:18;19905.66;;;-140.19;57.54
6869;BME280;3473;42.604;23.496;2022-08-20T02:23:50;19903.72;;;-140.19;58.05
6869;BME280;3473;42.604;23.496;2022-08-20T02:25:29;19925.06;;;-140.19;58.00
6869;BME280;3473;42.604;23.496;2022-08-20T02:27:02;19870.72;;;-140.19;58.15
6869;BME280;3473;42.604;23.496;2022-08-20T02:28:35;19913.41;;;-140.19;58.45
6869;BME280;3473;42.604;23.496;2022-08-20T02:30:10;19888.19;;;-140.19;58.46
6869;BME280;3473;42.604;23.496;2022-08-20T02:31:44;19905.66;;;-140.19;58.59
6869;BME280;3473;42.604;23.496;2022-08-20T02:33:19;19878.47;;;-140.19;58.50
6869;BME280;3473;42.604;23.496;2022-08-20T02:34:51;19839.66;;;-140.19;58.40
6869;BME280;3473;42.604;23.496;2022-08-20T02:36:22;19880.41;;;-140.19;58.35
6869;BME280;3473;42.604;23.496;2022-08-20T02:37:55;19880.41;;;-140.19;57.95
6869;BME280;3473;42.604;23.496;2022-08-20T02:39:27;19870.72;;;-140.19;58.08
6869;BME280;3473;42.604;23.496;2022-08-20T02:40:59;19901.75;;;-140.19;57.98
6869;BME280;3473;42.604;23.496;2022-08-20T02:42:30;19851.31;;;-140.19;58.08
6869;BME280;3473;42.604;23.496;2022-08-20T02:44:04;19829.94;;;-140.19;58.70
6869;BME280;3473;42.604;23.496;2022-08-20T02:45:36;19824.13;;;-140.19;58.56
6869;BME280;3473;42.604;23.496;2022-08-20T02:47:13;19829.94;;;-140.19;58.72
6869;BME280;3473;42.604;23.496;2022-08-20T02:48:46;19845.47;;;-140.19;58.48
6869;BME280;3473;42.604;23.496;2022-08-20T02:50:19;19855.19;;;-140.19;58.42
6869;BME280;3473;42.604;23.496;2022-08-20T02:51:51;19855.19;;;-140.19;58.63
6869;BME280;3473;42.604;23.496;2022-08-20T02:53:24;19800.84;;;-140.19;58.42
6869;BME280;3473;42.604;23.496;2022-08-20T02:54:56;19795.03;;;-140.19;58.90
6869;BME280;3473;42.604;23.496;2022-08-20T02:56:27;19824.13;;;-140.19;58.53
6869;BME280;3473;42.604;23.496;2022-08-20T02:57:59;19816.38;;;-140.19;58.73
6869;BME280;3473;42.604;23.496;2022-08-20T02:59:31;19800.84;;;-140.19;58.77
6869;BME280;3473;42.604;23.496;2022-08-20T03:01:05;19820.25;;;-140.19;59.00
6869;BME280;3473;42.604;23.496;2022-08-20T03:02:37;19806.66;;;-140.19;59.00
6869;BME280;3473;42.604;23.496;2022-08-20T03:04:08;19806.66;;;-140.19;59.01
6869;BME280;3473;42.604;23.496;2022-08-20T03:05:41;19996.88;;;-140.19;59.53
6869;BME280;3473;42.604;23.496;2022-08-20T03:07:13;19742.63;;;-140.19;59.27
6869;BME280;3473;42.604;23.496;2022-08-20T03:08:45;19765.91;;;-140.19;59.37
6869;BME280;3473;42.604;23.496;2022-08-20T03:10:22;19845.47;;;-140.19;59.62
6869;BME280;3473;42.604;23.496;2022-08-20T03:11:53;19762.03;;;-140.19;59.75
6869;BME280;3473;42.604;23.496;2022-08-20T03:13:25;19779.50;;;-140.19;59.77
6869;BME280;3473;42.604;23.496;2022-08-20T03:14:58;19736.78;;;-140.19;60.07
6869;BME280;3473;42.604;23.496;2022-08-20T03:16:30;19758.13;;;-140.19;60.10
6869;BME280;3473;42.604;23.496;2022-08-20T03:18:02;19703.78;;;-140.19;60.44
6869;BME280;3473;42.604;23.496;2022-08-20T03:19:34;19734.84;;;-140.19;60.45
6869;BME280;3473;42.604;23.496;2022-08-20T03:21:07;19746.50;;;-140.19;60.73
6869;BME280;3473;42.604;23.496;2022-08-20T03:22:39;19709.63;;;-140.19;60.88
6869;BME280;3473;42.604;23.496;2022-08-20T03:24:11;19711.56;;;-140.19;60.96
6869;BME280;3473;42.604;23.496;2022-08-20T03:25:43;19727.09;;;-140.19;60.97
6869;BME280;3473;42.604;23.496;2022-08-20T03:27:17;19682.44;;;-140.19;60.79
6869;BME280;3473;42.604;23.496;2022-08-20T03:28:48;19664.97;;;-140.19;60.79
6869;BME280;3473;42.604;23.496;2022-08-20T03:30:24;19688.28;;;-140.19;60.34
6869;BME280;3473;42.604;23.496;2022-08-20T03:31:55;19678.56;;;-140.19;60.96
6869;BME280;3473;42.604;23.496;2022-08-20T03:33:27;19641.69;;;-140.19;61.28
6869;BME280;3473;42.604;23.496;2022-08-20T03:34:59;19637.81;;;-140.19;61.33
6869;BME280;3473;42.604;23.496;2022-08-20T03:36:30;19632.00;;;-140.19;61.91
6869;BME280;3473;42.604;23.496;2022-08-20T03:38:06;19666.91;;;-140.19;61.87
6869;BME280;3473;42.604;23.496;2022-08-20T03:39:38;19738.72;;;-140.19;62.58
6869;BME280;3473;42.604;23.496;2022-08-20T03:41:09;19562.13;;;-140.19;62.72
6869;BME280;3473;42.604;23.496;2022-08-20T03:42:41;19536.91;;;-140.19;62.92
6869;BME280;3473;42.604;23.496;2022-08-20T03:44:13;19523.31;;;-140.19;63.08
6869;BME280;3473;42.604;23.496;2022-08-20T03:45:46;19548.53;;;-140.19;62.97
6869;BME280;3473;42.604;23.496;2022-08-20T03:47:18;19503.91;;;-140.19;63.06
6869;BME280;3473;42.604;23.496;2022-08-20T03:48:50;19560.19;;;-140.19;63.61
6869;BME280;3473;42.604;23.496;2022-08-20T03:50:25;19492.25;;;-140.19;63.36
6869;BME280;3473;42.604;23.496;2022-08-20T03:51:56;19494.19;;;-140.19;62.94
6869;BME280;3473;42.604;23.496;2022-08-20T03:53:28;19496.13;;;-140.19;63.36
6869;BME280;3473;42.604;23.496;2022-08-20T03:55:00;19470.91;;;-140.19;63.46
6869;BME280;3473;42.604;23.496;2022-08-20T03:56:31;19482.56;;;-140.19;63.71
6869;BME280;3473;42.604;23.496;2022-08-20T03:58:05;19482.56;;;-140.19;63.99
6869;BME280;3473;42.604;23.496;2022-08-20T03:59:37;19424.34;;;-140.19;63.88
6869;BME280;3473;42.604;23.496;2022-08-20T04:01:10;19463.16;;;-140.19;63.91
6869;BME280;3473;42.604;23.496;2022-08-20T04:02:41;19434.03;;;-140.19;63.57
6869;BME280;3473;42.604;23.496;2022-08-20T04:04:12;19360.28;;;-140.19;63.55
6869;BME280;3473;42.604;23.496;2022-08-20T04:05:46;19552.41;;;-140.19;63.58
6869;BME280;3473;42.604;23.496;2022-08-20T04:07:21;19498.06;;;-140.19;63.72
6869;BME280;3473;42.604;23.496;2022-08-20T04:08:56;19428.22;;;-140.19;63.83
6869;BME280;3473;42.604;23.496;2022-08-20T04:10:29;19571.81;;;-140.19;63.39
6869;BME280;3473;42.604;23.496;2022-08-20T04:12:00;19383.59;;;-140.19;63.42
6869;BME280;3473;42.604;23.496;2022-08-20T04:13:32;19389.41;;;-140.19;63.36
6869;BME280;3473;42.604;23.496;2022-08-20T04:15:05;19414.63;;;-140.19;62.92
6869;BME280;3473;42.604;23.496;2022-08-20T04:16:37;19350.59;;;-140.19;62.85
6869;BME280;3473;42.604;23.496;2022-08-20T04:18:11;19373.88;;;-140.19;63.20
6869;BME280;3473;42.604;23.496;2022-08-20T04:19:42;19344.78;;;-140.19;63.35
6869;BME280;3473;42.604;23.496;2022-08-20T04:21:15;19381.63;;;-140.19;63.05
6869;BME280;3473;42.604;23.496;2022-08-20T04:22:47;19395.22;;;-140.19;62.77
6869;BME280;3473;42.604;23.496;2022-08-20T04:24:19;19383.59;;;-140.19;63.10
6869;BME280;3473;42.604;23.496;2022-08-20T04:25:50;19340.88;;;-140.19;62.95
6869;BME280;3473;42.604;23.496;2022-08-20T04:27:23;19346.72;;;-140.19;63.17
6869;BME280;3473;42.604;23.496;2022-08-20T04:28:55;19286.56;;;-140.19;62.91
6869;BME280;3473;42.604;23.496;2022-08-20T04:30:28;19333.13;;;-140.19;62.77
6869;BME280;3473;42.604;23.496;2022-08-20T04:32:02;19344.78;;;-140.19;62.31
6869;BME280;3473;42.604;23.496;2022-08-20T04:33:35;19412.69;;;-140.19;62.29
6869;BME280;3473;42.604;23.496;2022-08-20T04:35:10;19342.81;;;-140.19;62.62
6869;BME280;3473;42.604;23.496;2022-08-20T04:36:41;19356.41;;;-140.19;62.41
6869;BME280;3473;42.604;23.496;2022-08-20T04:38:15;19397.16;;;-140.19;62.22
6869;BME280;3473;42.604;23.496;2022-08-20T04:39:47;19395.22;;;-140.19;61.96
6869;BME280;3473;42.604;23.496;2022-08-20T04:41:39;19389.41;;;-140.19;61.51
6869;BME280;3473;42.604;23.496;2022-08-20T04:43:10;19389.41;;;-140.19;60.91
6869;BME280;3473;42.604;23.496;2022-08-20T04:44:42;19404.94;;;-140.19;61.07
6869;BME280;3473;42.604;23.496;2022-08-20T04:46:14;19401.03;;;-140.19;60.73
6869;BME280;3473;42.604;23.496;2022-08-20T04:47:47;19368.06;;;-140.19;60.60
6869;BME280;3473;42.604;23.496;2022-08-20T04:49:19;19391.34;;;-140.19;59.87
6869;BME280;3473;42.604;23.496;2022-08-20T04:50:56;19439.84;;;-140.19;60.10
6869;BME280;3473;42.604;23.496;2022-08-20T04:52:28;19455.38;;;-140.19;58.82
6869;BME280;3473;42.604;23.496;2022-08-20T04:54:02;19451.50;;;-140.19;58.68
6869;BME280;3473;42.604;23.496;2022-08-20T04:55:36;19542.72;;;-140.19;57.70
6869;BME280;3473;42.604;23.496;2022-08-20T04:57:08;19480.63;;;-140.19;58.15
6869;BME280;3473;42.604;23.496;2022-08-20T04:58:40;19599.00;;;-140.19;57.57
6869;BME280;3473;42.604;23.496;2022-08-20T05:00:18;19476.72;;;-140.19;57.47
6869;BME280;3473;42.604;23.496;2022-08-20T05:01:52;19513.59;;;-140.19;57.29
6869;BME280;3473;42.604;23.496;2022-08-20T05:03:26;19467.03;;;-140.19;57.47
6869;BME280;3473;42.604;23.496;2022-08-20T05:04:58;19480.63;;;-140.19;56.46
6869;BME280;3473;42.604;23.496;2022-08-20T05:06:30;19468.97;;;-140.19;56.21
6869;BME280;3473;42.604;23.496;2022-08-20T05:08:03;19585.41;;;-140.19;55.61
6869;BME280;3473;42.604;23.496;2022-08-20T05:09:35;19482.56;;;-140.19;56.17
6869;BME280;3473;42.604;23.496;2022-08-20T05:11:07;19521.38;;;-140.19;55.52
6869;BME280;3473;42.604;23.496;2022-08-20T05:12:40;19567.94;;;-140.19;54.92
6869;BME280;3473;42.604;23.496;2022-08-20T05:14:12;19490.31;;;-140.19;54.34
6869;BME280;3473;42.604;23.496;2022-08-20T05:15:45;19593.19;;;-140.19;54.35
6869;BME280;3473;42.604;23.496;2022-08-20T05:17:17;19492.25;;;-140.19;53.66
6869;BME280;3473;42.604;23.496;2022-08-20T05:18:51;19548.53;;;-140.19;53.08
6869;BME280;3473;42.604;23.496;2022-08-20T05:20:23;19536.91;;;-140.19;52.88
6869;BME280;3473;42.604;23.496;2022-08-20T05:22:00;19641.69;;;-140.19;51.35
6869;BME280;3473;42.604;23.496;2022-08-20T05:23:33;19552.41;;;-140.19;51.79
6869;BME280;3473;42.604;23.496;2022-08-20T05:25:05;19655.28;;;-140.19;51.33
6869;BME280;3473;42.604;23.496;2022-08-20T05:26:36;19633.94;;;-140.19;51.92
6869;BME280;3473;42.604;23.496;2022-08-20T05:28:10;19624.22;;;-140.19;51.36
6869;BME280;3473;42.604;23.496;2022-08-20T05:29:42;19616.47;;;-140.19;51.07
6869;BME280;3473;42.604;23.496;2022-08-20T05:31:14;19606.75;;;-140.19;51.20
6869;BME280;3473;42.604;23.496;2022-08-20T05:32:45;19699.91;;;-140.19;50.05
6869;BME280;3473;42.604;23.496;2022-08-20T05:34:19;19657.22;;;-140.19;51.01
6869;BME280;3473;42.604;23.496;2022-08-20T05:35:52;19614.53;;;-140.19;52.07
6869;BME280;3473;42.604;23.496;2022-08-20T05:37:23;19663.03;;;-140.19;51.67
6869;BME280;3473;42.604;23.496;2022-08-20T05:38:55;19622.28;;;-140.19;51.45
6869;BME280;3473;42.604;23.496;2022-08-20T05:40:27;19637.81;;;-140.19;50.46
6869;BME280;3473;42.604;23.496;2022-08-20T05:41:58;19626.16;;;-140.19;51.03
6869;BME280;3473;42.604;23.496;2022-08-20T05:43:30;19608.69;;;-140.19;51.55
6869;BME280;3473;42.604;23.496;2022-08-20T05:45:03;19622.28;;;-140.19;51.41
6869;BME280;3473;42.604;23.496;2022-08-20T05:46:36;19608.69;;;-140.19;52.12
6869;BME280;3473;42.604;23.496;2022-08-20T05:48:11;19645.56;;;-140.19;51.73
6869;BME280;3473;42.604;23.496;2022-08-20T05:49:45;19556.31;;;-140.19;52.84
6869;BME280;3473;42.604;23.496;2022-08-20T05:51:16;19624.22;;;-140.19;50.83
6869;BME280;3473;42.604;23.496;2022-08-20T05:52:48;19762.03;;;-140.19;50.55
6869;BME280;3473;42.604;23.496;2022-08-20T05:54:20;19664.97;;;-140.19;51.42
6869;BME280;3473;42.604;23.496;2022-08-20T05:55:53;19633.94;;;-140.19;51.27
6869;BME280;3473;42.604;23.496;2022-08-20T05:57:25;19661.09;;;-140.19;50.84
6869;BME280;3473;42.604;23.496;2022-08-20T05:58:56;19694.09;;;-140.19;49.17
6869;BME280;3473;42.604;23.496;2022-08-20T06:00:28;19666.91;;;-140.19;48.76
6869;BME280;3473;42.604;23.496;2022-08-20T06:02:00;19663.03;;;-140.19;48.99
6869;BME280;3473;42.604;23.496;2022-08-20T06:03:52;19649.47;;;-140.19;48.45
6869;BME280;3473;42.604;23.496;2022-08-20T06:05:42;19692.16;;;-140.19;48.39
6869;BME280;3473;42.604;23.496;2022-08-20T06:07:13;19651.41;;;-140.19;47.03
6869;BME280;3473;42.604;23.496;2022-08-20T06:08:46;19727.09;;;-140.19;47.16
6869;BME280;3473;42.604;23.496;2022-08-20T06:10:18;19674.69;;;-140.19;47.96
6869;BME280;3473;42.604;23.496;2022-08-20T06:11:49;19709.63;;;-140.19;46.43
6869;BME280;3473;42.604;23.496;2022-08-20T06:13:21;19690.22;;;-140.19;46.17
6869;BME280;3473;42.604;23.496;2022-08-20T06:14:53;19738.72;;;-140.19;46.69
6869;BME280;3473;42.604;23.496;2022-08-20T06:16:25;19692.16;;;-140.19;46.64
6869;BME280;3473;42.604;23.496;2022-08-20T06:17:57;19826.06;;;-140.19;46.72
6869;BME280;3473;42.604;23.496;2022-08-20T06:19:29;19730.97;;;-140.19;46.08
6869;BME280;3473;42.604;23.496;2022-08-20T06:21:01;19719.31;;;-140.19;45.76
6869;BME280;3473;42.604;23.496;2022-08-20T06:22:33;19762.03;;;-140.19;44.19
6869;BME280;3473;42.604;23.496;2022-08-20T06:24:05;19740.69;;;-140.19;44.80
6869;BME280;3473;42.604;23.496;2022-08-20T06:25:37;19754.25;;;-140.19;45.18
6869;BME280;3473;42.604;23.496;2022-08-20T06:27:12;19762.03;;;-140.19;45.73
6869;BME280;3473;42.604;23.496;2022-08-20T06:28:44;19736.78;;;-140.19;44.64
6869;BME280;3473;42.604;23.496;2022-08-20T06:30:17;19808.59;;;-140.19;45.13
6869;BME280;3473;42.604;23.496;2022-08-20T06:31:48;19806.66;;;-140.19;44.60
6869;BME280;3473;42.604;23.496;2022-08-20T06:33:19;19828.00;;;-140.19;43.51
6869;BME280;3473;42.604;23.496;2022-08-20T06:34:51;19818.31;;;-140.19;42.77
6869;BME280;3473;42.604;23.496;2022-08-20T06:36:24;19785.31;;;-140.19;43.73
6869;BME280;3473;42.604;23.496;2022-08-20T06:37:56;19829.94;;;-140.19;42.60
6869;BME280;3473;42.604;23.496;2022-08-20T06:39:29;19872.66;;;-140.19;42.12
6869;BME280;3473;42.604;23.496;2022-08-20T06:41:01;19798.91;;;-140.19;42.66
6869;BME280;3473;42.604;23.496;2022-08-20T06:42:35;19802.78;;;-140.19;42.37
6869;BME280;3473;42.604;23.496;2022-08-20T06:44:12;19806.66;;;-140.19;43.94
6869;BME280;3473;42.604;23.496;2022-08-20T06:45:44;19816.38;;;-140.19;42.76
6869;BME280;3473;42.604;23.496;2022-08-20T06:47:16;19793.06;;;-140.19;42.77
6869;BME280;3473;42.604;23.496;2022-08-20T06:48:49;19870.72;;;-140.19;42.62
6869;BME280;3473;42.604;23.496;2022-08-20T06:50:24;19800.84;;;-140.19;42.93
6869;BME280;3473;42.604;23.496;2022-08-20T06:51:58;19843.53;;;-140.19;42.83
6869;BME280;3473;42.604;23.496;2022-08-20T06:53:30;19829.94;;;-140.19;42.22
6869;BME280;3473;42.604;23.496;2022-08-20T06:55:02;19862.94;;;-140.19;42.85
6869;BME280;3473;42.604;23.496;2022-08-20T06:56:33;19824.13;;;-140.19;42.47
6869;BME280;3473;42.604;23.496;2022-08-20T06:58:07;19843.53;;;-140.19;42.80
6869;BME280;3473;42.604;23.496;2022-08-20T06:59:40;19826.06;;;-140.19;42.93
6869;BME280;3473;42.604;23.496;2022-08-20T07:01:12;19831.91;;;-140.19;43.51
6869;BME280;3473;42.604;23.496;2022-08-20T07:02:44;19946.41;;;-140.19;43.99
6869;BME280;3473;42.604;23.496;2022-08-20T07:04:17;19868.78;;;-140.19;43.60
6869;BME280;3473;42.604;23.496;2022-08-20T07:05:49;19835.78;;;-140.19;43.87
6869;BME280;3473;42.604;23.496;2022-08-20T07:07:22;19824.13;;;-140.19;44.20
6869;BME280;3473;42.604;23.496;2022-08-20T07:08:54;19800.84;;;-140.19;45.25
6869;BME280;3473;42.604;23.496;2022-08-20T07:10:28;19828.00;;;-140.19;44.07
6869;BME280;3473;42.604;23.496;2022-08-20T07:11:59;19793.06;;;-140.19;44.55
6869;BME280;3473;42.604;23.496;2022-08-20T07:13:30;19756.19;;;-140.19;44.15
6869;BME280;3473;42.604;23.496;2022-08-20T07:15:02;19769.78;;;-140.19;44.49
6869;BME280;3473;42.604;23.496;2022-08-20T07:16:34;19783.38;;;-140.19;44.69
6869;BME280;3473;42.604;23.496;2022-08-20T07:18:06;19806.66;;;-140.19;44.03
6869;BME280;3473;42.604;23.496;2022-08-20T07:19:39;19849.38;;;-140.19;43.94
6869;BME280;3473;42.604;23.496;2022-08-20T07:21:10;19843.53;;;-140.19;43.33
6869;BME280;3473;42.604;23.496;2022-08-20T07:22:44;19829.94;;;-140.19;44.08
6869;BME280;3473;42.604;23.496;2022-08-20T07:24:15;19802.78;;;-140.19;44.07
6869;BME280;3473;42.604;23.496;2022-08-20T07:25:47;19798.91;;;-140.19;44.08
6869;BME280;3473;42.604;23.496;2022-08-20T07:27:20;19890.13;;;-140.19;43.59
6869;BME280;3473;42.604;23.496;2022-08-20T07:28:53;19831.91;;;-140.19;43.41
6869;BME280;3473;42.604;23.496;2022-08-20T07:30:26;19829.94;;;-140.19;43.27
6869;BME280;3473;42.604;23.496;2022-08-20T07:32:15;19859.06;;;-140.19;43.05
6869;BME280;3473;42.604;23.496;2022-08-20T07:34:04;19824.13;;;-140.19;42.98
6869;BME280;3473;42.604;23.496;2022-08-20T07:35:36;19822.19;;;-140.19;42.12
6869;BME280;3473;42.604;23.496;2022-08-20T07:37:07;19874.59;;;-140.19;42.13
6869;BME280;3473;42.604;23.496;2022-08-20T07:38:41;19901.75;;;-140.19;41.14
6869;BME280;3473;42.604;23.496;2022-08-20T07:40:18;19849.38;;;-140.19;41.21
6869;BME280;3473;42.604;23.496;2022-08-20T07:41:50;19917.28;;;-140.19;41.43
6869;BME280;3473;42.604;23.496;2022-08-20T07:43:33;19892.06;;;-140.19;41.22
6869;BME280;3473;42.604;23.496;2022-08-20T07:45:05;19975.53;;;-140.19;41.27
6869;BME280;3473;42.604;23.496;2022-08-20T07:46:38;19944.47;;;-140.19;39.84
6869;BME280;3473;42.604;23.496;2022-08-20T07:48:11;19913.41;;;-140.19;39.55
6869;BME280;3473;42.604;23.496;2022-08-20T07:49:43;19901.75;;;-140.19;40.38
6869;BME280;3473;42.604;23.496;2022-08-20T07:51:17;19975.53;;;-140.19;40.88
6869;BME280;3473;42.604;23.496;2022-08-20T07:52:49;19855.19;;;-140.19;41.06
6869;BME280;3473;42.604;23.496;2022-08-20T07:54:23;19861.00;;;-140.19;40.82
6869;BME280;3473;42.604;23.496;2022-08-20T07:55:57;19886.25;;;-140.19;40.50
6869;BME280;3473;42.604;23.496;2022-08-20T07:57:29;19872.66;;;-140.19;40.25
6869;BME280;3473;42.604;23.496;2022-08-20T07:59:01;19890.13;;;-140.19;40.00
6869;BME280;3473;42.604;23.496;2022-08-20T08:00:33;19894.00;;;-140.19;39.92
6869;BME280;3473;42.604;23.496;2022-08-20T08:02:05;19911.47;;;-140.19;40.78
6869;BME280;3473;42.604;23.496;2022-08-20T08:03:40;19876.53;;;-140.19;40.25
6869;BME280;3473;42.604;23.496;2022-08-20T08:05:12;19907.59;;;-140.19;40.79
6869;BME280;3473;42.604;23.496;2022-08-20T08:06:44;20022.09;;;-140.19;40.53
6869;BME280;3473;42.604;23.496;2022-08-20T08:08:19;19888.19;;;-140.19;40.00